Time;durP1;ratioP1;P1;durP2;ratioP2;P2;SDS_P1;SDS_P2;PMS_P1;PMS_P2;Temp;Humidity;BMP_temperature;BMP_pressure;BME280_temperature;BME280_humidity;BME280_pressure;Samples;Min_cycle;Max_cycle;Signal;HPM_P1;HPM_P2
2021/12/27 00:02:19;;;;;;;45.03;23.25;;;-0.50;99.90;;;;;;5094585;27;20039;-91
2021/12/27 00:04:45;;;;;;;47.58;24.20;;;-0.50;99.90;;;;;;5095440;27;20061;-90
2021/12/27 00:07:10;;;;;;;46.22;23.90;;;-0.40;99.90;;;;;;5112631;27;20042;-90
2021/12/27 00:09:36;;;;;;;48.25;23.70;;;-0.40;99.90;;;;;;5079047;27;20505;-90
2021/12/27 00:12:03;;;;;;;43.85;23.27;;;-0.50;99.90;;;;;;5089826;28;20039;-90
2021/12/27 00:14:29;;;;;;;46.28;24.50;;;-0.40;99.90;;;;;;5091456;27;20508;-90
2021/12/27 00:16:55;;;;;;;46.78;24.98;;;-0.50;99.90;;;;;;5095336;27;20069;-89
2021/12/27 00:19:20;;;;;;;44.83;23.30;;;-0.40;99.90;;;;;;5079726;27;20050;-90
2021/12/27 00:21:46;;;;;;;48.55;24.98;;;-0.30;99.90;;;;;;5077852;27;20051;-89
2021/12/27 00:24:11;;;;;;;49.47;26.20;;;-0.40;99.90;;;;;;5101578;27;20073;-90
2021/12/27 00:26:37;;;;;;;48.65;24.50;;;-0.40;99.90;;;;;;5095389;27;20043;-90
2021/12/27 00:29:03;;;;;;;49.45;26.38;;;-0.40;99.90;;;;;;5086025;27;20042;-90
2021/12/27 00:31:28;;;;;;;46.30;24.58;;;-0.40;99.90;;;;;;5090401;28;20036;-91
2021/12/27 00:33:54;;;;;;;46.25;25.88;;;-0.30;99.90;;;;;;5087491;27;20039;-89
2021/12/27 00:36:19;;;;;;;49.35;25.67;;;-0.40;99.90;;;;;;5087524;28;20036;-89
2021/12/27 00:38:45;;;;;;;45.15;24.58;;;-0.30;99.90;;;;;;5079819;28;20523;-90
2021/12/27 00:41:11;;;;;;;47.55;24.25;;;-0.30;99.90;;;;;;5102206;27;20500;-90
2021/12/27 00:43:36;;;;;;;45.88;25.27;;;-0.40;99.90;;;;;;5089394;28;20093;-91
2021/12/27 00:46:02;;;;;;;47.22;25.02;;;-0.30;99.90;;;;;;5088828;27;20058;-90
2021/12/27 00:48:27;;;;;;;46.05;25.35;;;-0.30;99.90;;;;;;5078588;28;20064;-90
2021/12/27 00:50:53;;;;;;;48.08;24.75;;;-0.30;99.90;;;;;;5090863;27;20213;-89
2021/12/27 00:53:19;;;;;;;49.38;25.35;;;-0.40;99.90;;;;;;5078003;27;20039;-90
2021/12/27 00:55:44;;;;;;;44.15;24.27;;;-0.30;99.90;;;;;;5104147;27;20892;-90
2021/12/27 00:58:10;;;;;;;47.25;25.70;;;-0.30;99.90;;;;;;5083086;28;20027;-90
2021/12/27 01:00:37;;;;;;;46.95;25.02;;;-0.30;99.90;;;;;;5089884;27;20055;-91
2021/12/27 01:03:02;;;;;;;48.30;25.50;;;-0.30;99.90;;;;;;5091098;28;20043;-91
2021/12/27 01:05:28;;;;;;;50.15;25.60;;;-0.30;99.90;;;;;;5093115;27;20034;-90
2021/12/27 01:07:54;;;;;;;50.13;25.77;;;-0.30;99.90;;;;;;5093926;27;20050;-90
2021/12/27 01:13:21;;;;;;;51.28;24.30;;;-0.30;99.90;;;;;;5110630;27;20082;-90
2021/12/27 01:16:02;;;;;;;47.97;25.17;;;-0.30;99.90;;;;;;5094176;27;20500;-91
2021/12/27 01:18:28;;;;;;;49.45;25.05;;;-0.30;99.90;;;;;;5093615;27;20035;-90
2021/12/27 01:20:53;;;;;;;51.58;25.15;;;-0.30;99.90;;;;;;5080360;27;20036;-90
2021/12/27 01:23:19;;;;;;;48.90;24.02;;;-0.30;99.90;;;;;;5094677;27;20031;-90
2021/12/27 01:25:44;;;;;;;51.78;26.38;;;-0.30;99.90;;;;;;5082279;27;20054;-90
2021/12/27 01:28:10;;;;;;;50.00;25.42;;;-0.30;99.90;;;;;;5084410;27;20042;-90
2021/12/27 01:30:37;;;;;;;51.50;26.05;;;-0.30;99.90;;;;;;5108253;27;20047;-91
2021/12/27 01:33:04;;;;;;;49.40;26.05;;;-0.20;99.90;;;;;;5084489;27;20035;-90
2021/12/27 01:35:29;;;;;;;50.67;25.40;;;-0.30;99.90;;;;;;5093702;27;20046;-91
2021/12/27 01:37:55;;;;;;;50.25;25.38;;;-0.20;99.90;;;;;;5077340;27;20040;-91
2021/12/27 01:40:24;;;;;;;53.20;26.42;;;-0.20;99.90;;;;;;5088936;28;20114;-90
2021/12/27 01:43:15;;;;;;;50.17;24.83;;;-0.20;99.90;;;;;;5081150;27;20102;-91
2021/12/27 01:45:50;;;;;;;49.83;25.00;;;-0.20;99.90;;;;;;5092906;27;20141;-92
2021/12/27 01:48:21;;;;;;;52.58;25.42;;;-0.20;99.90;;;;;;5076893;27;20049;-91
2021/12/27 01:50:49;;;;;;;53.72;26.77;;;-0.20;99.90;;;;;;5093663;28;20130;-90
2021/12/27 01:53:16;;;;;;;53.35;27.80;;;-0.10;99.90;;;;;;5093314;27;20553;-90
2021/12/27 01:55:41;;;;;;;54.72;27.70;;;-0.20;99.90;;;;;;5093117;28;20043;-90
2021/12/27 01:58:08;;;;;;;53.65;27.08;;;-0.20;99.90;;;;;;5093136;28;20051;-90
2021/12/27 02:00:35;;;;;;;53.63;27.15;;;-0.20;99.90;;;;;;5093470;28;20035;-91
2021/12/27 02:03:03;;;;;;;58.33;26.75;;;-0.20;99.90;;;;;;5093063;28;20126;-90
2021/12/27 02:05:30;;;;;;;54.75;27.48;;;-0.20;99.90;;;;;;5093822;28;20074;-90
2021/12/27 02:07:55;;;;;;;57.30;27.38;;;-0.20;99.90;;;;;;5079274;28;20060;-90
2021/12/27 02:10:21;;;;;;;54.60;27.17;;;-0.20;99.90;;;;;;5085128;27;20079;-91
2021/12/27 02:12:46;;;;;;;59.25;28.05;;;-0.20;99.90;;;;;;5082022;28;20055;-90
2021/12/27 02:15:13;;;;;;;54.58;27.38;;;-0.20;99.90;;;;;;5090451;28;20274;-91
2021/12/27 02:17:41;;;;;;;54.70;26.90;;;-0.10;99.90;;;;;;5094191;27;20034;-91
2021/12/27 02:20:34;;;;;;;57.35;27.33;;;-0.20;99.90;;;;;;5093311;28;20046;-90
2021/12/27 02:23:03;;;;;;;54.60;28.60;;;-0.20;99.90;;;;;;5101321;28;20043;-91
2021/12/27 02:25:31;;;;;;;53.30;26.88;;;-0.20;99.90;;;;;;5093618;28;20067;-91
2021/12/27 02:27:57;;;;;;;54.28;26.70;;;-0.20;99.90;;;;;;5092332;28;20035;-91
2021/12/27 02:30:23;;;;;;;58.70;29.23;;;-0.20;99.90;;;;;;5093050;28;20045;-91
2021/12/27 02:32:50;;;;;;;57.38;28.58;;;-0.10;99.90;;;;;;5076390;28;20044;-91
2021/12/27 02:35:25;;;;;;;53.60;29.63;;;-0.20;99.90;;;;;;5110599;28;20035;-92
2021/12/27 02:37:51;;;;;;;55.28;27.15;;;-0.20;99.90;;;;;;5093906;27;20062;-92
2021/12/27 02:40:18;;;;;;;52.80;27.88;;;-0.20;99.90;;;;;;5113174;27;20046;-91
2021/12/27 02:43:04;;;;;;;55.90;27.92;;;-0.20;99.90;;;;;;5113289;27;20069;-91
2021/12/27 02:45:33;;;;;;;59.42;27.88;;;-0.10;99.90;;;;;;5091186;27;20512;-91
2021/12/27 02:47:59;;;;;;;61.05;29.00;;;-0.10;99.90;;;;;;5109581;27;20055;-91
2021/12/27 02:50:26;;;;;;;58.63;28.50;;;-0.10;99.90;;;;;;5095779;27;20511;-92
2021/12/27 02:52:52;;;;;;;58.97;28.33;;;-0.10;99.90;;;;;;5089866;27;20208;-92
2021/12/27 02:55:19;;;;;;;61.10;29.70;;;-0.10;99.90;;;;;;5113509;27;20042;-92
2021/12/27 02:57:46;;;;;;;55.88;27.73;;;-0.10;99.90;;;;;;5082559;28;20039;-91
2021/12/27 03:00:21;;;;;;;62.67;29.15;;;-0.10;99.90;;;;;;5087645;27;20047;-91
2021/12/27 03:02:48;;;;;;;59.33;29.60;;;-0.10;99.90;;;;;;5090455;27;20496;-90
2021/12/27 03:05:17;;;;;;;60.50;29.38;;;-0.10;99.90;;;;;;5096119;27;20043;-91
2021/12/27 03:07:43;;;;;;;64.57;30.45;;;-0.10;99.90;;;;;;5096782;27;20046;-91
2021/12/27 03:10:11;;;;;;;62.92;30.10;;;-0.10;99.90;;;;;;5096481;27;20073;-91
2021/12/27 03:12:38;;;;;;;60.33;30.73;;;-0.10;99.90;;;;;;5096783;27;20136;-91
2021/12/27 03:15:08;;;;;;;61.88;31.40;;;-0.10;99.90;;;;;;5105600;27;20045;-91
2021/12/27 03:17:36;;;;;;;61.63;30.95;;;-0.10;99.90;;;;;;5112120;27;20035;-91
2021/12/27 03:20:05;;;;;;;58.03;30.10;;;-0.10;99.90;;;;;;5092736;27;20053;-91
2021/12/27 03:22:31;;;;;;;64.95;30.50;;;0.00;99.90;;;;;;5107460;28;20046;-91
2021/12/27 03:24:57;;;;;;;60.45;29.63;;;0.00;99.90;;;;;;5095760;27;20031;-91
2021/12/27 03:27:23;;;;;;;59.65;30.92;;;-0.10;99.90;;;;;;5084061;28;20027;-91
2021/12/27 03:29:49;;;;;;;64.35;30.45;;;0.00;99.90;;;;;;5070573;27;20036;-90
2021/12/27 03:32:15;;;;;;;59.30;31.20;;;0.00;99.90;;;;;;5096670;27;20492;-90
2021/12/27 03:34:52;;;;;;;65.13;33.33;;;0.00;99.90;;;;;;5078937;28;20040;-91
2021/12/27 03:37:19;;;;;;;65.18;30.77;;;0.00;99.90;;;;;;5094863;27;20035;-90
2021/12/27 03:39:44;;;;;;;62.00;30.60;;;0.00;99.90;;;;;;5085952;27;20106;-91
2021/12/27 03:42:10;;;;;;;57.65;29.38;;;0.00;99.90;;;;;;5095713;27;20035;-91
2021/12/27 03:44:35;;;;;;;62.95;31.48;;;0.00;99.90;;;;;;5110238;28;20048;-90
2021/12/27 03:47:01;;;;;;;61.53;30.67;;;0.10;99.90;;;;;;5093667;28;20043;-90
2021/12/27 03:49:27;;;;;;;62.42;30.95;;;0.10;99.90;;;;;;5093333;28;20114;-90
2021/12/27 03:51:52;;;;;;;67.60;32.67;;;0.10;99.90;;;;;;5093478;28;20489;-91
2021/12/27 03:54:18;;;;;;;60.00;31.15;;;0.10;99.90;;;;;;5093275;28;20046;-90
2021/12/27 03:56:43;;;;;;;73.47;34.10;;;0.10;99.90;;;;;;5093318;28;20170;-91
2021/12/27 03:59:38;;;;;;;64.78;32.83;;;0.10;99.90;;;;;;5088318;28;20047;-90
2021/12/27 04:02:04;;;;;;;61.65;31.58;;;0.10;99.90;;;;;;5093156;28;20039;-90
2021/12/27 04:04:30;;;;;;;67.57;31.42;;;0.10;99.90;;;;;;5093144;28;20047;-90
2021/12/27 04:06:56;;;;;;;62.45;32.35;;;0.10;99.90;;;;;;5093364;28;20040;-90
2021/12/27 04:09:22;;;;;;;69.07;31.70;;;0.10;99.90;;;;;;5093721;27;20036;-89
2021/12/27 04:11:47;;;;;;;64.75;32.28;;;0.10;99.90;;;;;;5096453;27;20389;-90
2021/12/27 04:14:13;;;;;;;67.38;31.52;;;0.10;99.90;;;;;;5092725;27;20096;-90
2021/12/27 04:16:38;;;;;;;65.68;32.42;;;0.20;99.90;;;;;;5093123;28;20172;-90
2021/12/27 04:19:04;;;;;;;68.70;33.53;;;0.20;99.90;;;;;;5106712;27;20042;-90
2021/12/27 04:21:30;;;;;;;64.50;31.55;;;0.20;99.90;;;;;;5083199;27;20046;-90
2021/12/27 04:23:56;;;;;;;68.72;33.47;;;0.20;99.90;;;;;;5095663;27;20043;-90
2021/12/27 04:26:22;;;;;;;67.03;32.97;;;0.20;99.90;;;;;;5109175;28;20039;-90
2021/12/27 04:28:49;;;;;;;65.75;31.42;;;0.20;99.90;;;;;;5111868;27;20104;-89
2021/12/27 04:31:15;;;;;;;74.47;33.30;;;0.20;99.90;;;;;;5097064;28;20104;-90
2021/12/27 04:33:41;;;;;;;65.65;31.55;;;0.20;99.90;;;;;;5084223;27;20122;-89
2021/12/27 04:36:07;;;;;;;67.38;33.42;;;0.20;99.90;;;;;;5113507;27;20191;-90
2021/12/27 04:38:33;;;;;;;70.70;32.92;;;0.20;99.90;;;;;;5112801;27;20046;-90
2021/12/27 04:40:59;;;;;;;63.00;31.60;;;0.20;99.90;;;;;;5112925;27;20043;-90
2021/12/27 04:43:25;;;;;;;69.78;32.67;;;0.20;99.90;;;;;;5095715;27;20039;-90
2021/12/27 04:45:53;;;;;;;69.78;33.25;;;0.20;99.90;;;;;;5112847;27;20051;-90
2021/12/27 04:48:21;;;;;;;76.28;33.78;;;0.20;99.90;;;;;;5096133;27;20039;-91
2021/12/27 04:50:47;;;;;;;71.82;34.42;;;0.30;99.90;;;;;;5112810;27;20064;-90
2021/12/27 04:53:13;;;;;;;71.43;34.25;;;0.30;99.90;;;;;;5095633;27;20043;-90
2021/12/27 04:55:39;;;;;;;70.22;34.13;;;0.20;99.90;;;;;;5095737;27;20038;-90
2021/12/27 04:58:08;;;;;;;73.25;35.78;;;0.20;99.90;;;;;;5078601;28;20043;-89
2021/12/27 05:00:34;;;;;;;77.82;36.15;;;0.20;99.90;;;;;;5095457;27;20035;-90
2021/12/27 05:02:59;;;;;;;85.70;36.97;;;0.20;99.90;;;;;;5109172;27;20099;-90
2021/12/27 05:05:26;;;;;;;85.68;36.47;;;0.10;99.90;;;;;;5083625;27;20055;-90
2021/12/27 05:07:52;;;;;;;81.28;37.08;;;0.10;99.90;;;;;;5094924;27;20039;-90
2021/12/27 05:10:17;;;;;;;83.45;38.15;;;0.10;99.90;;;;;;5095663;27;20051;-90
2021/12/27 05:12:44;;;;;;;95.75;40.33;;;0.00;99.90;;;;;;5083049;28;20535;-91
2021/12/27 05:15:10;;;;;;;88.68;38.70;;;0.00;99.90;;;;;;5092195;28;20035;-90
2021/12/27 05:17:35;;;;;;;98.70;41.47;;;0.00;99.90;;;;;;5087241;27;20043;-90
2021/12/27 05:20:04;;;;;;;100.55;41.67;;;0.00;99.90;;;;;;5108755;28;20094;-90
2021/12/27 05:22:31;;;;;;;102.25;41.60;;;0.00;99.90;;;;;;5093262;27;20059;-89
2021/12/27 05:24:58;;;;;;;96.22;40.55;;;0.10;99.90;;;;;;5095320;27;20031;-90
2021/12/27 05:27:23;;;;;;;102.07;42.58;;;0.10;99.90;;;;;;5095329;27;20039;-89
2021/12/27 05:29:49;;;;;;;92.82;40.97;;;0.10;99.90;;;;;;5091186;28;20028;-90
2021/12/27 05:32:15;;;;;;;93.10;38.33;;;0.10;99.90;;;;;;5089134;27;20039;-90
2021/12/27 05:34:41;;;;;;;88.07;38.33;;;0.10;99.90;;;;;;5090146;28;20044;-90
2021/12/27 05:37:06;;;;;;;89.78;39.95;;;0.10;99.90;;;;;;5083997;28;20104;-90
2021/12/27 05:39:32;;;;;;;101.93;41.67;;;0.10;99.90;;;;;;5090263;27;20427;-90
2021/12/27 05:41:58;;;;;;;91.82;40.00;;;0.10;99.90;;;;;;5095253;27;20039;-90
2021/12/27 05:44:24;;;;;;;91.93;39.85;;;0.10;99.90;;;;;;5088017;28;20052;-90
2021/12/27 05:46:49;;;;;;;93.07;40.15;;;0.10;99.90;;;;;;5092029;27;20071;-90
2021/12/27 05:49:15;;;;;;;98.72;41.20;;;0.10;99.90;;;;;;5090108;27;20031;-90
2021/12/27 05:51:43;;;;;;;96.18;40.45;;;0.10;99.90;;;;;;5094435;27;20043;-91
2021/12/27 05:54:10;;;;;;;95.90;38.15;;;0.10;99.90;;;;;;5095072;28;20074;-91
2021/12/27 05:56:35;;;;;;;104.45;42.20;;;0.20;99.90;;;;;;5094806;27;20544;-91
2021/12/27 05:59:02;;;;;;;99.47;39.95;;;0.20;99.90;;;;;;5086002;28;20036;-91
2021/12/27 06:01:28;;;;;;;104.25;42.05;;;0.20;99.90;;;;;;5092900;28;20035;-91
2021/12/27 06:03:57;;;;;;;101.82;41.42;;;0.10;99.90;;;;;;5081386;28;20184;-91
2021/12/27 06:06:25;;;;;;;101.20;39.63;;;0.20;99.90;;;;;;5091910;28;20043;-91
2021/12/27 06:08:50;;;;;;;117.80;42.47;;;0.20;99.90;;;;;;5107321;28;20517;-90
2021/12/27 06:11:16;;;;;;;120.88;45.50;;;0.10;99.90;;;;;;5089636;28;20046;-91
2021/12/27 06:13:43;;;;;;;112.25;42.90;;;0.10;99.90;;;;;;5069936;28;20150;-90
2021/12/27 06:16:09;;;;;;;116.35;42.97;;;0.20;99.90;;;;;;5095905;28;20506;-90
2021/12/27 06:18:35;;;;;;;126.55;45.70;;;0.10;99.90;;;;;;5098221;27;20035;-90
2021/12/27 06:21:00;;;;;;;119.38;43.88;;;0.20;99.90;;;;;;5092845;28;20047;-91
2021/12/27 06:23:26;;;;;;;120.43;44.28;;;0.10;99.90;;;;;;5088003;27;20035;-90
2021/12/27 06:25:51;;;;;;;113.20;44.88;;;0.20;99.90;;;;;;5091760;28;20074;-90
2021/12/27 06:28:17;;;;;;;114.68;44.60;;;0.20;99.90;;;;;;5094629;27;20043;-90
2021/12/27 06:30:43;;;;;;;130.25;45.63;;;0.20;99.90;;;;;;5107366;27;20043;-90
2021/12/27 06:33:10;;;;;;;126.57;43.28;;;0.20;99.90;;;;;;5094162;28;20619;-91
2021/12/27 06:35:36;;;;;;;124.65;46.13;;;0.20;99.90;;;;;;5094393;27;20485;-91
2021/12/27 06:38:02;;;;;;;132.88;46.85;;;0.20;99.90;;;;;;5096544;28;20046;-90
2021/12/27 06:40:28;;;;;;;137.40;46.42;;;0.20;99.90;;;;;;5097119;27;20031;-91
2021/12/27 06:42:53;;;;;;;125.85;45.90;;;0.20;99.90;;;;;;5081663;27;20047;-91
2021/12/27 06:45:19;;;;;;;126.35;46.10;;;0.20;99.90;;;;;;5088208;28;20062;-90
2021/12/27 06:47:44;;;;;;;138.13;47.50;;;0.20;99.90;;;;;;5088050;27;20054;-91
2021/12/27 06:50:11;;;;;;;137.20;49.00;;;0.20;99.90;;;;;;5097980;27;20035;-90
2021/12/27 06:52:37;;;;;;;137.77;46.88;;;0.20;99.90;;;;;;5089608;28;20036;-91
2021/12/27 06:55:04;;;;;;;133.80;46.88;;;0.20;99.90;;;;;;5080382;28;20142;-90
2021/12/27 06:57:30;;;;;;;136.23;48.03;;;0.20;99.90;;;;;;5109277;27;20043;-91
2021/12/27 06:59:56;;;;;;;129.10;48.15;;;0.20;99.90;;;;;;5114693;27;20050;-91
2021/12/27 07:02:23;;;;;;;138.70;49.60;;;0.20;99.90;;;;;;5098094;27;20039;-91
2021/12/27 07:04:49;;;;;;;131.38;47.65;;;0.20;99.90;;;;;;5081599;28;20046;-91
2021/12/27 07:07:15;;;;;;;140.60;46.95;;;0.20;99.90;;;;;;5094712;28;20043;-91
2021/12/27 07:09:40;;;;;;;135.32;46.83;;;0.20;99.90;;;;;;5081501;28;20151;-90
2021/12/27 07:12:06;;;;;;;148.90;48.90;;;0.30;99.90;;;;;;5094693;28;20055;-91
2021/12/27 07:14:32;;;;;;;146.20;46.30;;;0.30;99.90;;;;;;5079408;28;20694;-92
2021/12/27 07:16:57;;;;;;;144.88;48.22;;;0.30;99.90;;;;;;5095241;27;20047;-91
2021/12/27 07:19:23;;;;;;;135.63;48.22;;;0.30;99.90;;;;;;5098404;27;20043;-91
2021/12/27 07:21:49;;;;;;;150.07;47.05;;;0.30;99.90;;;;;;5090245;28;20044;-90
2021/12/27 07:24:14;;;;;;;136.02;46.35;;;0.30;99.90;;;;;;5093019;28;20423;-90
2021/12/27 07:26:40;;;;;;;135.23;46.13;;;0.30;99.90;;;;;;5097164;27;20103;-90
2021/12/27 07:29:05;;;;;;;142.10;45.95;;;0.30;99.90;;;;;;5086016;27;20213;-91
2021/12/27 07:31:31;;;;;;;146.00;45.25;;;0.30;99.90;;;;;;5097072;27;20035;-92
2021/12/27 07:33:56;;;;;;;142.15;45.50;;;0.30;99.90;;;;;;5080268;27;20044;-92
2021/12/27 07:36:22;;;;;;;155.05;47.72;;;0.30;99.90;;;;;;5088631;27;20046;-89
2021/12/27 07:38:48;;;;;;;158.30;49.90;;;0.30;99.90;;;;;;5093970;28;20043;-89
2021/12/27 07:41:14;;;;;;;153.27;50.35;;;0.30;99.90;;;;;;5095472;27;20035;-89
2021/12/27 07:43:39;;;;;;;162.32;49.42;;;0.30;99.90;;;;;;5086905;27;20074;-91
2021/12/27 07:46:05;;;;;;;165.25;52.45;;;0.40;99.90;;;;;;5092475;27;20043;-89
2021/12/27 07:48:30;;;;;;;165.13;51.67;;;0.40;99.90;;;;;;5083775;27;20079;-89
2021/12/27 07:50:56;;;;;;;166.25;49.08;;;0.40;99.90;;;;;;5094881;27;20565;-88
2021/12/27 07:53:21;;;;;;;167.90;52.38;;;0.40;99.90;;;;;;5095084;27;20118;-88
2021/12/27 07:55:47;;;;;;;167.30;50.42;;;0.40;99.90;;;;;;5093679;27;20400;-88
2021/12/27 07:58:13;;;;;;;166.75;50.70;;;0.40;99.90;;;;;;5090521;27;20035;-89
2021/12/27 08:00:38;;;;;;;171.77;52.78;;;0.40;99.90;;;;;;5083503;27;20044;-89
2021/12/27 08:03:05;;;;;;;184.93;53.22;;;0.40;99.90;;;;;;5085715;27;20047;-87
2021/12/27 08:09:36;;;;;;;186.57;51.63;;;0.50;99.90;;;;;;5006855;28;20046;-89
2021/12/27 08:16:13;;;;;;;207.68;57.40;;;0.40;99.90;;;;;;4975001;28;20081;-93
2021/12/27 08:18:41;;;;;;;216.90;59.72;;;0.40;99.90;;;;;;4955037;28;20058;-94
2021/12/27 08:21:07;;;;;;;206.40;54.20;;;0.60;99.90;;;;;;4938780;28;20543;-91
2021/12/27 08:23:35;;;;;;;219.68;54.15;;;0.50;99.90;;;;;;4953879;28;20088;-90
2021/12/27 08:26:04;;;;;;;204.38;52.40;;;0.50;99.90;;;;;;4938353;28;20575;-93
2021/12/27 08:28:30;;;;;;;212.77;54.65;;;0.50;99.90;;;;;;4952719;28;20054;-88
2021/12/27 08:30:56;;;;;;;216.43;57.38;;;0.50;99.90;;;;;;4935443;28;20540;-88
2021/12/27 08:33:21;;;;;;;212.60;54.40;;;0.50;99.90;;;;;;4936086;28;20180;-87
2021/12/27 08:39:38;;;;;;;216.45;56.85;;;0.50;99.90;;;;;;4966915;28;20056;-91
2021/12/27 08:50:41;;;;;;;;;;;;;;;;;;;;;
2021/12/27 08:57:34;;;;;;;;;;;;;;;;;;;;;
2021/12/27 09:08:39;;;;;;;303.48;61.35;;;0.70;99.90;;;;;;4896424;29;20260;-95
2021/12/27 09:11:29;;;;;;;311.65;65.10;;;0.70;99.90;;;;;;4899198;29;20053;-91
2021/12/27 09:14:28;;;;;;;322.25;66.68;;;0.70;99.90;;;;;;4882785;29;20056;-93
2021/12/27 09:17:47;;;;;;;;;;;;;;;;;;;;;
2021/12/27 09:20:46;;;;;;;;;;;0.70;99.90;;;;;;4919466;29;20054;-95
2021/12/27 09:26:50;;;;;;;319.05;63.45;;;0.80;99.90;;;;;;4942713;28;20057;-96
2021/12/27 09:29:18;;;;;;;361.80;66.70;;;0.80;99.90;;;;;;4918307;29;20085;-95
2021/12/27 09:32:07;;;;;;;353.38;67.47;;;0.80;99.90;;;;;;4948888;28;20039;-93
2021/12/27 09:34:45;;;;;;;361.75;68.05;;;0.80;99.90;;;;;;4940153;28;20042;-92
2021/12/27 09:38:18;;;;;;;;;;;;;;;;;;;;;
2021/12/27 10:01:52;;;;;;;463.92;71.10;;;1.10;99.90;;;;;;5335503;23;20136;-91
2021/12/27 10:09:02;;;;;;;449.15;66.32;;;1.20;99.90;;;;;;4828748;29;20138;-94
2021/12/27 10:22:39;;;;;;;444.77;66.43;;;1.20;99.90;;;;;;4788123;29;20055;-96
2021/12/27 10:29:11;;;;;;;521.40;69.97;;;1.40;99.90;;;;;;4785839;29;20096;-95
2021/12/27 10:32:31;;;;;;;;;;;;;;;;;;;;;
2021/12/27 10:39:29;;;;;;;449.30;65.40;;;1.40;99.90;;;;;;4709695;30;20136;-93
2021/12/27 11:19:29;;;;;;;450.92;62.60;;;1.80;99.90;;;;;;5971795;23;20023;31
2021/12/27 11:21:57;;;;;;;497.70;67.55;;;1.90;99.90;;;;;;4875033;29;19938;-96
2021/12/27 11:27:52;;;;;;;512.75;71.47;;;1.90;99.90;;;;;;4855734;29;20054;-95
2021/12/27 11:30:36;;;;;;;519.08;74.85;;;2.00;99.90;;;;;;4859934;29;20089;-94
2021/12/27 11:33:22;;;;;;;483.42;70.82;;;1.90;99.90;;;;;;4848635;29;20052;-95
2021/12/27 11:36:01;;;;;;;485.52;68.47;;;1.90;99.90;;;;;;4846472;29;20090;-92
2021/12/27 11:41:37;;;;;;;525.42;68.05;;;1.90;99.90;;;;;;4839789;29;20064;-95
2021/12/27 11:44:17;;;;;;;533.85;70.65;;;1.90;99.90;;;;;;4826870;29;20501;-92
2021/12/27 11:46:49;;;;;;;564.10;73.43;;;1.90;99.90;;;;;;4817752;29;20053;-90
2021/12/27 11:49:16;;;;;;;610.90;76.72;;;1.90;99.90;;;;;;4820783;29;20490;-91
2021/12/27 11:51:46;;;;;;;493.17;66.18;;;2.00;99.90;;;;;;4826124;29;20074;-95
2021/12/27 11:54:30;;;;;;;512.33;66.03;;;2.00;99.90;;;;;;4817169;29;20049;-92
2021/12/27 11:57:53;;;;;;;;;;;;;;;;;;;;;
2021/12/27 12:11:36;;;;;;;448.60;64.13;;;2.10;99.90;;;;;;4783583;29;20054;-96
2021/12/27 12:14:24;;;;;;;459.92;67.22;;;2.20;99.90;;;;;;4752573;30;20150;-90
2021/12/27 12:16:51;;;;;;;498.50;71.97;;;2.30;99.90;;;;;;4753548;30;20087;-93
2021/12/27 12:19:17;;;;;;;454.20;68.50;;;2.30;99.90;;;;;;4755739;30;20078;-91
2021/12/27 12:21:51;;;;;;;523.05;72.90;;;2.30;99.90;;;;;;4769392;29;20463;-94
2021/12/27 12:24:22;;;;;;;483.27;69.25;;;2.30;99.90;;;;;;4794716;29;20732;-92
2021/12/27 12:26:55;;;;;;;462.77;68.47;;;2.40;99.90;;;;;;4772506;29;20519;-91
2021/12/27 12:51:39;;;;;;;;;;;2.40;99.90;;;;;;4673832;30;20062;-95
2021/12/27 12:54:24;;;;;;;341.52;58.08;;;2.40;99.90;;;;;;4742218;23;20003;-96
2021/12/27 12:57:58;;;;;;;;;;;;;;;;;;;;;
2021/12/27 13:04:39;;;;;;;311.40;59.90;;;2.40;99.90;;;;;;4824439;29;20044;-96
2021/12/27 13:07:05;;;;;;;314.67;62.83;;;2.50;99.90;;;;;;4795842;29;20053;-95
2021/12/27 13:09:51;;;;;;;317.13;66.65;;;2.50;99.90;;;;;;4790797;29;20050;-96
2021/12/27 13:12:27;;;;;;;302.83;64.97;;;2.60;99.90;;;;;;4805614;29;20046;-91
2021/12/27 13:14:54;;;;;;;295.25;64.18;;;2.60;99.90;;;;;;4819958;29;20078;-90
2021/12/27 13:17:23;;;;;;;317.48;68.15;;;2.60;99.90;;;;;;4804630;29;20425;-93
2021/12/27 13:20:03;;;;;;;268.95;60.75;;;2.70;99.90;;;;;;4808721;29;20089;-92
2021/12/27 13:23:00;;;;;;;241.05;55.92;;;2.70;99.90;;;;;;4793496;29;20042;-92
2021/12/27 13:25:39;;;;;;;236.00;55.85;;;2.80;99.90;;;;;;4789064;29;20513;-95
2021/12/27 13:28:05;;;;;;;226.95;54.58;;;2.80;99.90;;;;;;4800179;29;20050;-94
2021/12/27 13:30:33;;;;;;;229.02;50.80;;;2.80;99.90;;;;;;4797934;29;20577;-95
2021/12/27 13:32:59;;;;;;;210.85;52.25;;;2.80;99.90;;;;;;4798619;29;20186;-96
2021/12/27 13:35:25;;;;;;;195.65;48.65;;;2.80;99.90;;;;;;4820185;29;20038;-94
2021/12/27 13:52:49;;;;;;;155.55;42.63;;;2.70;99.90;;;;;;4903656;23;20582;-91
2021/12/27 14:10:27;;;;;;;156.73;43.00;;;2.90;99.90;;;;;;5669035;23;20049;-95
2021/12/27 14:12:58;;;;;;;127.53;42.97;;;2.90;99.90;;;;;;4898030;29;20052;-95
2021/12/27 14:15:32;;;;;;;148.75;44.10;;;2.90;99.90;;;;;;4890656;29;20051;-95
2021/12/27 14:18:14;;;;;;;134.25;41.97;;;2.80;99.90;;;;;;4866253;29;20108;-95
2021/12/27 14:21:01;;;;;;;123.75;40.13;;;2.80;99.90;;;;;;4888408;29;20404;-95
2021/12/27 14:23:27;;;;;;;133.43;40.75;;;2.70;99.90;;;;;;4886933;29;20044;-94
2021/12/27 14:26:19;;;;;;;127.57;39.92;;;2.60;99.90;;;;;;4881441;29;20066;-96
2021/12/27 14:29:13;;;;;;;121.13;38.35;;;2.60;99.90;;;;;;4880700;29;20059;-94
2021/12/27 14:31:54;;;;;;;142.05;41.17;;;2.50;99.90;;;;;;4881055;29;20079;-95
2021/12/27 14:34:55;;;;;;;135.90;41.50;;;2.50;99.90;;;;;;4870009;29;20041;-95
2021/12/27 14:37:22;;;;;;;123.35;41.75;;;2.50;99.90;;;;;;4889791;29;20059;-92
2021/12/27 14:43:25;;;;;;;127.57;41.63;;;2.60;99.90;;;;;;4893532;29;20072;-95
2021/12/27 14:46:34;;;;;;;132.43;42.30;;;2.70;99.90;;;;;;4887072;29;20087;-96
2021/12/27 14:49:32;;;;;;;131.10;40.90;;;2.70;99.90;;;;;;4887868;29;20388;-96
2021/12/27 14:51:58;;;;;;;119.40;38.50;;;2.70;99.90;;;;;;4872778;29;20088;-94
2021/12/27 14:54:24;;;;;;;116.50;39.78;;;2.70;99.90;;;;;;4869424;29;20040;-93
2021/12/27 14:56:50;;;;;;;113.32;39.33;;;2.70;99.90;;;;;;4879979;29;20044;-93
2021/12/27 14:59:16;;;;;;;112.50;38.10;;;2.70;99.90;;;;;;4885473;29;20060;-94
2021/12/27 15:01:41;;;;;;;109.63;36.85;;;2.70;99.90;;;;;;4881782;29;20499;-93
2021/12/27 15:04:07;;;;;;;104.15;35.58;;;2.70;99.90;;;;;;4900864;29;20044;-96
2021/12/27 15:06:33;;;;;;;101.07;36.63;;;2.60;99.90;;;;;;4884969;29;20040;-93
2021/12/27 15:09:45;;;;;;;102.20;37.88;;;2.60;99.90;;;;;;4881717;29;20048;-93
2021/12/27 15:12:30;;;;;;;116.97;39.33;;;2.50;99.90;;;;;;4879687;29;20059;-96
2021/12/27 15:15:00;;;;;;;102.95;36.08;;;2.60;99.90;;;;;;4885184;29;20064;-96
2021/12/27 15:17:26;;;;;;;110.13;37.72;;;2.60;99.90;;;;;;4877323;29;20069;-92
2021/12/27 15:19:52;;;;;;;106.38;37.17;;;2.60;99.90;;;;;;4878778;29;20148;-89
2021/12/27 15:22:18;;;;;;;111.32;39.03;;;2.60;99.90;;;;;;4875430;29;20042;-90
2021/12/27 15:24:44;;;;;;;99.15;37.20;;;2.60;99.90;;;;;;4871726;29;20044;-94
2021/12/27 15:27:45;;;;;;;105.20;35.38;;;2.70;99.90;;;;;;4876944;29;20049;-93
2021/12/27 15:30:46;;;;;;;98.70;36.72;;;2.60;99.90;;;;;;4851459;29;20687;-95
2021/12/27 15:33:12;;;;;;;105.78;36.70;;;2.60;99.90;;;;;;4848878;29;20117;-94
2021/12/27 15:35:38;;;;;;;109.25;37.78;;;2.60;99.90;;;;;;4877479;29;20041;-89
2021/12/27 15:41:52;;;;;;;97.47;36.70;;;2.70;99.90;;;;;;4798869;29;20065;-92
2021/12/27 15:44:18;;;;;;;107.00;37.40;;;2.70;99.90;;;;;;4776755;29;20538;-95
2021/12/27 15:46:44;;;;;;;100.43;36.75;;;2.70;99.90;;;;;;4771451;29;20066;-92
2021/12/27 15:49:15;;;;;;;91.03;36.00;;;2.50;99.90;;;;;;4774891;29;20051;-94
2021/12/27 15:51:44;;;;;;;100.53;36.80;;;2.40;99.90;;;;;;4788383;29;20066;-95
2021/12/27 15:54:10;;;;;;;104.25;37.75;;;2.50;99.90;;;;;;4772294;29;20039;-96
2021/12/27 15:56:36;;;;;;;100.25;36.55;;;2.50;99.90;;;;;;4767410;29;20051;-96
2021/12/27 15:59:04;;;;;;;89.40;35.05;;;2.50;99.90;;;;;;4775515;29;20062;-96
2021/12/27 16:01:32;;;;;;;102.82;38.58;;;2.50;99.90;;;;;;4776992;29;20058;-95
2021/12/27 16:04:03;;;;;;;103.43;38.35;;;2.50;99.90;;;;;;4779795;29;20161;-95
2021/12/27 16:06:37;;;;;;;115.03;39.17;;;2.60;99.90;;;;;;4779019;29;20053;-95
2021/12/27 16:09:14;;;;;;;107.22;39.15;;;2.60;99.90;;;;;;4773275;29;20556;-96
2021/12/27 16:11:43;;;;;;;100.18;37.45;;;2.70;99.90;;;;;;4806260;29;20107;-96
2021/12/27 16:14:09;;;;;;;95.43;36.97;;;2.70;99.90;;;;;;4796516;29;20054;-95
2021/12/27 16:16:41;;;;;;;94.45;36.80;;;2.70;99.90;;;;;;4796696;29;20057;-96
2021/12/27 16:19:07;;;;;;;92.75;37.03;;;2.70;99.90;;;;;;4870707;29;20067;-96